sensor_id;sensor_type;location;lat;lon;timestamp;P1;durP1;ratioP1;P2;durP2;ratioP2
13683;SDS011;6914;53.552;9.908;2023-12-07T00:01:53;132.30;;;47.43;;
13683;SDS011;6914;53.552;9.908;2023-12-07T00:04:20;143.03;;;48.00;;
13683;SDS011;6914;53.552;9.908;2023-12-07T00:06:48;121.77;;;45.40;;
13683;SDS011;6914;53.552;9.908;2023-12-07T00:09:16;137.47;;;49.07;;
13683;SDS011;6914;53.552;9.908;2023-12-07T00:11:43;131.33;;;46.33;;
13683;SDS011;6914;53.552;9.908;2023-12-07T00:14:10;128.93;;;46.30;;
13683;SDS011;6914;53.552;9.908;2023-12-07T00:16:37;136.43;;;46.07;;
13683;SDS011;6914;53.552;9.908;2023-12-07T00:19:04;129.00;;;45.40;;
13683;SDS011;6914;53.552;9.908;2023-12-07T00:21:32;133.73;;;49.07;;
13683;SDS011;6914;53.552;9.908;2023-12-07T00:24:00;134.27;;;48.33;;
13683;SDS011;6914;53.552;9.908;2023-12-07T00:26:27;129.10;;;45.40;;
13683;SDS011;6914;53.552;9.908;2023-12-07T00:28:54;136.93;;;44.47;;
13683;SDS011;6914;53.552;9.908;2023-12-07T00:31:21;131.07;;;46.87;;
13683;SDS011;6914;53.552;9.908;2023-12-07T00:33:48;124.27;;;45.57;;
13683;SDS011;6914;53.552;9.908;2023-12-07T00:36:15;135.67;;;47.17;;
13683;SDS011;6914;53.552;9.908;2023-12-07T00:38:43;120.37;;;44.23;;
13683;SDS011;6914;53.552;9.908;2023-12-07T00:41:12;131.37;;;45.87;;
13683;SDS011;6914;53.552;9.908;2023-12-07T00:43:39;129.27;;;45.97;;
13683;SDS011;6914;53.552;9.908;2023-12-07T00:46:06;146.40;;;49.17;;
13683;SDS011;6914;53.552;9.908;2023-12-07T00:48:33;137.67;;;47.40;;
13683;SDS011;6914;53.552;9.908;2023-12-07T00:51:01;133.53;;;43.83;;
13683;SDS011;6914;53.552;9.908;2023-12-07T00:53:28;120.83;;;43.47;;
13683;SDS011;6914;53.552;9.908;2023-12-07T00:55:55;108.40;;;41.23;;
13683;SDS011;6914;53.552;9.908;2023-12-07T00:58:24;127.67;;;46.00;;
13683;SDS011;6914;53.552;9.908;2023-12-07T01:00:51;118.33;;;45.10;;
13683;SDS011;6914;53.552;9.908;2023-12-07T01:03:18;118.40;;;44.23;;
13683;SDS011;6914;53.552;9.908;2023-12-07T01:05:45;117.17;;;43.87;;
13683;SDS011;6914;53.552;9.908;2023-12-07T01:08:12;123.73;;;44.37;;
13683;SDS011;6914;53.552;9.908;2023-12-07T01:10:39;129.87;;;45.40;;
13683;SDS011;6914;53.552;9.908;2023-12-07T01:13:06;126.00;;;41.30;;
13683;SDS011;6914;53.552;9.908;2023-12-07T01:15:35;128.87;;;44.53;;
13683;SDS011;6914;53.552;9.908;2023-12-07T01:18:02;123.30;;;42.17;;
13683;SDS011;6914;53.552;9.908;2023-12-07T01:20:29;118.80;;;44.00;;
13683;SDS011;6914;53.552;9.908;2023-12-07T01:22:56;123.97;;;42.27;;
13683;SDS011;6914;53.552;9.908;2023-12-07T01:25:23;119.97;;;42.33;;
13683;SDS011;6914;53.552;9.908;2023-12-07T01:27:50;120.90;;;40.40;;
13683;SDS011;6914;53.552;9.908;2023-12-07T01:30:17;116.70;;;41.97;;
13683;SDS011;6914;53.552;9.908;2023-12-07T01:32:46;111.40;;;41.47;;
13683;SDS011;6914;53.552;9.908;2023-12-07T01:35:13;114.80;;;41.93;;
13683;SDS011;6914;53.552;9.908;2023-12-07T01:37:40;114.23;;;42.40;;
13683;SDS011;6914;53.552;9.908;2023-12-07T01:40:08;108.13;;;40.80;;
13683;SDS011;6914;53.552;9.908;2023-12-07T01:42:36;112.17;;;41.03;;
13683;SDS011;6914;53.552;9.908;2023-12-07T01:45:04;104.07;;;40.30;;
13683;SDS011;6914;53.552;9.908;2023-12-07T01:47:31;110.97;;;43.50;;
13683;SDS011;6914;53.552;9.908;2023-12-07T01:50:00;107.33;;;41.23;;
13683;SDS011;6914;53.552;9.908;2023-12-07T01:52:29;101.67;;;38.73;;
13683;SDS011;6914;53.552;9.908;2023-12-07T01:54:57;103.67;;;39.70;;
13683;SDS011;6914;53.552;9.908;2023-12-07T01:57:24;108.13;;;41.40;;
13683;SDS011;6914;53.552;9.908;2023-12-07T01:59:51;114.17;;;43.37;;
13683;SDS011;6914;53.552;9.908;2023-12-07T02:02:18;94.43;;;40.07;;
13683;SDS011;6914;53.552;9.908;2023-12-07T02:04:45;98.43;;;39.07;;
13683;SDS011;6914;53.552;9.908;2023-12-07T02:07:14;86.67;;;37.23;;
13683;SDS011;6914;53.552;9.908;2023-12-07T02:09:41;100.47;;;39.80;;
13683;SDS011;6914;53.552;9.908;2023-12-07T02:12:08;98.37;;;41.83;;
13683;SDS011;6914;53.552;9.908;2023-12-07T02:14:36;106.70;;;40.70;;
13683;SDS011;6914;53.552;9.908;2023-12-07T02:17:06;100.00;;;38.37;;
13683;SDS011;6914;53.552;9.908;2023-12-07T02:19:45;90.07;;;38.80;;
13683;SDS011;6914;53.552;9.908;2023-12-07T02:22:17;87.90;;;39.73;;
13683;SDS011;6914;53.552;9.908;2023-12-07T02:24:47;97.70;;;38.63;;
13683;SDS011;6914;53.552;9.908;2023-12-07T02:27:17;93.70;;;38.37;;
13683;SDS011;6914;53.552;9.908;2023-12-07T02:29:44;89.17;;;37.73;;
13683;SDS011;6914;53.552;9.908;2023-12-07T02:32:11;100.40;;;37.67;;
13683;SDS011;6914;53.552;9.908;2023-12-07T02:34:38;89.63;;;38.57;;
13683;SDS011;6914;53.552;9.908;2023-12-07T02:37:06;89.20;;;39.10;;
13683;SDS011;6914;53.552;9.908;2023-12-07T02:39:33;80.63;;;39.10;;
13683;SDS011;6914;53.552;9.908;2023-12-07T02:42:00;87.80;;;39.80;;
13683;SDS011;6914;53.552;9.908;2023-12-07T02:44:29;98.33;;;41.20;;
13683;SDS011;6914;53.552;9.908;2023-12-07T02:46:57;98.47;;;40.93;;
13683;SDS011;6914;53.552;9.908;2023-12-07T02:49:25;86.20;;;40.40;;
13683;SDS011;6914;53.552;9.908;2023-12-07T02:51:52;93.43;;;42.40;;
13683;SDS011;6914;53.552;9.908;2023-12-07T02:54:19;95.83;;;41.27;;
13683;SDS011;6914;53.552;9.908;2023-12-07T02:56:47;88.57;;;39.50;;
13683;SDS011;6914;53.552;9.908;2023-12-07T02:59:15;83.60;;;38.30;;
13683;SDS011;6914;53.552;9.908;2023-12-07T03:01:43;87.10;;;37.00;;
13683;SDS011;6914;53.552;9.908;2023-12-07T03:04:10;75.87;;;36.90;;
13683;SDS011;6914;53.552;9.908;2023-12-07T03:06:37;85.07;;;36.20;;
13683;SDS011;6914;53.552;9.908;2023-12-07T03:09:04;89.80;;;35.60;;
13683;SDS011;6914;53.552;9.908;2023-12-07T03:11:32;70.13;;;35.40;;
13683;SDS011;6914;53.552;9.908;2023-12-07T03:13:59;77.10;;;36.27;;
13683;SDS011;6914;53.552;9.908;2023-12-07T03:16:26;75.20;;;36.77;;
13683;SDS011;6914;53.552;9.908;2023-12-07T03:18:54;72.03;;;35.20;;
13683;SDS011;6914;53.552;9.908;2023-12-07T03:21:22;76.60;;;34.90;;
13683;SDS011;6914;53.552;9.908;2023-12-07T03:23:49;89.77;;;35.10;;
13683;SDS011;6914;53.552;9.908;2023-12-07T03:26:16;71.47;;;34.40;;
13683;SDS011;6914;53.552;9.908;2023-12-07T03:28:43;79.47;;;35.03;;
13683;SDS011;6914;53.552;9.908;2023-12-07T03:31:10;82.40;;;37.67;;
13683;SDS011;6914;53.552;9.908;2023-12-07T03:33:37;75.87;;;34.67;;
13683;SDS011;6914;53.552;9.908;2023-12-07T03:36:06;82.87;;;36.20;;
13683;SDS011;6914;53.552;9.908;2023-12-07T03:38:33;75.73;;;35.17;;
13683;SDS011;6914;53.552;9.908;2023-12-07T03:41:01;70.63;;;34.47;;
13683;SDS011;6914;53.552;9.908;2023-12-07T03:43:28;79.20;;;36.63;;
13683;SDS011;6914;53.552;9.908;2023-12-07T03:45:56;79.77;;;34.77;;
13683;SDS011;6914;53.552;9.908;2023-12-07T03:48:23;70.47;;;35.47;;
13683;SDS011;6914;53.552;9.908;2023-12-07T03:50:50;77.20;;;36.67;;
13683;SDS011;6914;53.552;9.908;2023-12-07T03:53:18;73.20;;;36.30;;
13683;SDS011;6914;53.552;9.908;2023-12-07T03:55:46;71.83;;;35.80;;
13683;SDS011;6914;53.552;9.908;2023-12-07T03:58:13;76.83;;;35.60;;
13683;SDS011;6914;53.552;9.908;2023-12-07T04:00:40;72.60;;;34.60;;
13683;SDS011;6914;53.552;9.908;2023-12-07T04:03:07;70.80;;;34.17;;
13683;SDS011;6914;53.552;9.908;2023-12-07T04:05:35;84.10;;;36.80;;
13683;SDS011;6914;53.552;9.908;2023-12-07T04:08:02;63.50;;;34.33;;
13683;SDS011;6914;53.552;9.908;2023-12-07T04:10:31;72.93;;;35.73;;
13683;SDS011;6914;53.552;9.908;2023-12-07T04:12:58;64.50;;;33.90;;
13683;SDS011;6914;53.552;9.908;2023-12-07T04:15:25;65.70;;;35.37;;
13683;SDS011;6914;53.552;9.908;2023-12-07T04:17:52;71.50;;;33.23;;
13683;SDS011;6914;53.552;9.908;2023-12-07T04:20:19;63.87;;;34.17;;
13683;SDS011;6914;53.552;9.908;2023-12-07T04:22:47;68.57;;;34.43;;
13683;SDS011;6914;53.552;9.908;2023-12-07T04:25:14;69.93;;;32.37;;
13683;SDS011;6914;53.552;9.908;2023-12-07T04:27:42;71.63;;;34.00;;
13683;SDS011;6914;53.552;9.908;2023-12-07T04:30:10;69.70;;;34.87;;
13683;SDS011;6914;53.552;9.908;2023-12-07T04:32:37;73.27;;;35.40;;
13683;SDS011;6914;53.552;9.908;2023-12-07T04:35:05;68.33;;;35.07;;
13683;SDS011;6914;53.552;9.908;2023-12-07T04:37:32;68.13;;;32.10;;
13683;SDS011;6914;53.552;9.908;2023-12-07T04:39:59;75.70;;;35.43;;
13683;SDS011;6914;53.552;9.908;2023-12-07T04:42:26;74.87;;;35.93;;
13683;SDS011;6914;53.552;9.908;2023-12-07T04:44:55;73.87;;;33.20;;
13683;SDS011;6914;53.552;9.908;2023-12-07T04:47:22;66.40;;;34.77;;
13683;SDS011;6914;53.552;9.908;2023-12-07T04:49:49;71.27;;;35.47;;
13683;SDS011;6914;53.552;9.908;2023-12-07T04:52:16;71.47;;;33.00;;
13683;SDS011;6914;53.552;9.908;2023-12-07T04:54:44;63.87;;;33.63;;
13683;SDS011;6914;53.552;9.908;2023-12-07T04:57:11;61.60;;;32.67;;
13683;SDS011;6914;53.552;9.908;2023-12-07T04:59:38;84.83;;;35.90;;
13683;SDS011;6914;53.552;9.908;2023-12-07T05:02:07;68.43;;;35.70;;
13683;SDS011;6914;53.552;9.908;2023-12-07T05:04:34;71.67;;;35.33;;
13683;SDS011;6914;53.552;9.908;2023-12-07T05:07:01;78.43;;;36.53;;
13683;SDS011;6914;53.552;9.908;2023-12-07T05:09:29;72.67;;;37.20;;
13683;SDS011;6914;53.552;9.908;2023-12-07T05:11:56;77.23;;;35.93;;
13683;SDS011;6914;53.552;9.908;2023-12-07T05:14:24;67.13;;;36.93;;
13683;SDS011;6914;53.552;9.908;2023-12-07T05:16:51;67.90;;;35.10;;
13683;SDS011;6914;53.552;9.908;2023-12-07T05:19:22;66.30;;;34.60;;
13683;SDS011;6914;53.552;9.908;2023-12-07T05:21:49;78.93;;;37.70;;
13683;SDS011;6914;53.552;9.908;2023-12-07T05:24:16;77.23;;;36.87;;
13683;SDS011;6914;53.552;9.908;2023-12-07T05:26:43;82.63;;;37.17;;
13683;SDS011;6914;53.552;9.908;2023-12-07T05:29:12;75.40;;;36.07;;
13683;SDS011;6914;53.552;9.908;2023-12-07T05:31:39;72.80;;;36.77;;
13683;SDS011;6914;53.552;9.908;2023-12-07T05:34:07;76.20;;;37.17;;
13683;SDS011;6914;53.552;9.908;2023-12-07T05:36:35;81.27;;;36.30;;
13683;SDS011;6914;53.552;9.908;2023-12-07T05:39:02;65.60;;;33.97;;
13683;SDS011;6914;53.552;9.908;2023-12-07T05:41:32;71.60;;;35.40;;
13683;SDS011;6914;53.552;9.908;2023-12-07T05:43:59;74.40;;;38.47;;
13683;SDS011;6914;53.552;9.908;2023-12-07T05:46:27;73.20;;;36.33;;
13683;SDS011;6914;53.552;9.908;2023-12-07T05:48:54;82.30;;;36.77;;
13683;SDS011;6914;53.552;9.908;2023-12-07T05:51:22;84.57;;;39.27;;
13683;SDS011;6914;53.552;9.908;2023-12-07T05:53:51;73.97;;;38.63;;
13683;SDS011;6914;53.552;9.908;2023-12-07T05:56:18;71.00;;;40.80;;
13683;SDS011;6914;53.552;9.908;2023-12-07T05:58:46;70.87;;;36.90;;
13683;SDS011;6914;53.552;9.908;2023-12-07T06:01:16;76.23;;;38.97;;
13683;SDS011;6914;53.552;9.908;2023-12-07T06:03:43;72.10;;;36.70;;
13683;SDS011;6914;53.552;9.908;2023-12-07T06:06:11;89.43;;;40.67;;
13683;SDS011;6914;53.552;9.908;2023-12-07T06:08:38;72.17;;;36.53;;
13683;SDS011;6914;53.552;9.908;2023-12-07T06:11:08;70.53;;;38.30;;
13683;SDS011;6914;53.552;9.908;2023-12-07T06:13:35;93.20;;;38.43;;
13683;SDS011;6914;53.552;9.908;2023-12-07T06:16:02;88.60;;;40.00;;
13683;SDS011;6914;53.552;9.908;2023-12-07T06:18:30;78.10;;;40.10;;
13683;SDS011;6914;53.552;9.908;2023-12-07T06:20:57;76.10;;;38.83;;
13683;SDS011;6914;53.552;9.908;2023-12-07T06:23:24;67.73;;;38.37;;
13683;SDS011;6914;53.552;9.908;2023-12-07T06:25:51;72.23;;;38.57;;
13683;SDS011;6914;53.552;9.908;2023-12-07T06:28:20;73.37;;;38.97;;
13683;SDS011;6914;53.552;9.908;2023-12-07T06:30:47;74.83;;;40.17;;
13683;SDS011;6914;53.552;9.908;2023-12-07T06:33:14;71.73;;;40.67;;
13683;SDS011;6914;53.552;9.908;2023-12-07T06:35:41;82.00;;;41.40;;
13683;SDS011;6914;53.552;9.908;2023-12-07T06:38:08;73.53;;;39.93;;
13683;SDS011;6914;53.552;9.908;2023-12-07T06:40:35;75.90;;;39.53;;
13683;SDS011;6914;53.552;9.908;2023-12-07T06:43:03;71.10;;;37.97;;
13683;SDS011;6914;53.552;9.908;2023-12-07T06:45:31;73.17;;;39.10;;
13683;SDS011;6914;53.552;9.908;2023-12-07T06:47:59;71.40;;;39.00;;
13683;SDS011;6914;53.552;9.908;2023-12-07T06:50:26;70.40;;;39.53;;
13683;SDS011;6914;53.552;9.908;2023-12-07T06:52:53;77.97;;;39.43;;
13683;SDS011;6914;53.552;9.908;2023-12-07T06:55:21;69.17;;;38.77;;
13683;SDS011;6914;53.552;9.908;2023-12-07T06:57:49;80.20;;;41.03;;
13683;SDS011;6914;53.552;9.908;2023-12-07T07:00:16;83.13;;;42.03;;
13683;SDS011;6914;53.552;9.908;2023-12-07T07:02:46;70.03;;;39.40;;
13683;SDS011;6914;53.552;9.908;2023-12-07T07:05:14;76.30;;;38.73;;
13683;SDS011;6914;53.552;9.908;2023-12-07T07:07:41;73.70;;;39.90;;
13683;SDS011;6914;53.552;9.908;2023-12-07T07:10:08;71.87;;;39.30;;
13683;SDS011;6914;53.552;9.908;2023-12-07T07:12:37;76.70;;;39.67;;
13683;SDS011;6914;53.552;9.908;2023-12-07T07:15:06;81.40;;;40.33;;
13683;SDS011;6914;53.552;9.908;2023-12-07T07:17:33;73.57;;;39.67;;
13683;SDS011;6914;53.552;9.908;2023-12-07T07:20:02;78.50;;;41.23;;
13683;SDS011;6914;53.552;9.908;2023-12-07T07:22:29;65.70;;;39.10;;
13683;SDS011;6914;53.552;9.908;2023-12-07T07:24:56;74.97;;;40.27;;
13683;SDS011;6914;53.552;9.908;2023-12-07T07:27:23;75.43;;;40.27;;
13683;SDS011;6914;53.552;9.908;2023-12-07T07:29:50;74.47;;;39.00;;
13683;SDS011;6914;53.552;9.908;2023-12-07T07:32:17;68.27;;;38.87;;
13683;SDS011;6914;53.552;9.908;2023-12-07T07:34:44;70.17;;;38.93;;
13683;SDS011;6914;53.552;9.908;2023-12-07T07:37:13;77.60;;;42.50;;
13683;SDS011;6914;53.552;9.908;2023-12-07T07:39:40;64.93;;;37.93;;
13683;SDS011;6914;53.552;9.908;2023-12-07T07:42:07;73.03;;;38.97;;
13683;SDS011;6914;53.552;9.908;2023-12-07T07:44:35;66.77;;;38.00;;
13683;SDS011;6914;53.552;9.908;2023-12-07T07:47:02;72.87;;;39.50;;
13683;SDS011;6914;53.552;9.908;2023-12-07T07:49:29;79.73;;;39.97;;
13683;SDS011;6914;53.552;9.908;2023-12-07T07:51:56;65.27;;;37.80;;
13683;SDS011;6914;53.552;9.908;2023-12-07T07:54:24;60.80;;;36.87;;
13683;SDS011;6914;53.552;9.908;2023-12-07T07:56:51;67.50;;;38.57;;
13683;SDS011;6914;53.552;9.908;2023-12-07T07:59:18;76.17;;;38.70;;
13683;SDS011;6914;53.552;9.908;2023-12-07T08:01:45;72.00;;;38.73;;
13683;SDS011;6914;53.552;9.908;2023-12-07T08:04:13;78.97;;;38.67;;
13683;SDS011;6914;53.552;9.908;2023-12-07T08:06:40;75.60;;;37.87;;
13683;SDS011;6914;53.552;9.908;2023-12-07T08:09:07;68.20;;;39.97;;
13683;SDS011;6914;53.552;9.908;2023-12-07T08:11:36;65.50;;;35.77;;
13683;SDS011;6914;53.552;9.908;2023-12-07T08:14:03;69.57;;;38.87;;
13683;SDS011;6914;53.552;9.908;2023-12-07T08:16:30;64.97;;;37.87;;
13683;SDS011;6914;53.552;9.908;2023-12-07T08:18:57;70.73;;;38.43;;
13683;SDS011;6914;53.552;9.908;2023-12-07T08:21:25;70.17;;;39.97;;
13683;SDS011;6914;53.552;9.908;2023-12-07T08:23:54;70.27;;;39.60;;
13683;SDS011;6914;53.552;9.908;2023-12-07T08:26:21;69.10;;;38.73;;
13683;SDS011;6914;53.552;9.908;2023-12-07T08:28:50;67.83;;;39.43;;
13683;SDS011;6914;53.552;9.908;2023-12-07T08:31:19;67.33;;;39.37;;
13683;SDS011;6914;53.552;9.908;2023-12-07T08:33:48;68.40;;;38.20;;
13683;SDS011;6914;53.552;9.908;2023-12-07T08:36:15;73.87;;;38.87;;
13683;SDS011;6914;53.552;9.908;2023-12-07T08:38:42;67.00;;;39.43;;
13683;SDS011;6914;53.552;9.908;2023-12-07T08:41:09;61.93;;;34.80;;
13683;SDS011;6914;53.552;9.908;2023-12-07T08:43:36;67.37;;;38.03;;
13683;SDS011;6914;53.552;9.908;2023-12-07T08:46:05;73.17;;;40.13;;
13683;SDS011;6914;53.552;9.908;2023-12-07T08:48:33;66.03;;;37.77;;
13683;SDS011;6914;53.552;9.908;2023-12-07T08:51:00;65.70;;;39.27;;
13683;SDS011;6914;53.552;9.908;2023-12-07T08:53:27;72.57;;;39.20;;
13683;SDS011;6914;53.552;9.908;2023-12-07T08:55:54;76.80;;;42.07;;
13683;SDS011;6914;53.552;9.908;2023-12-07T08:58:22;72.07;;;40.43;;
13683;SDS011;6914;53.552;9.908;2023-12-07T09:00:49;72.70;;;39.60;;
13683;SDS011;6914;53.552;9.908;2023-12-07T09:03:18;73.67;;;42.10;;
13683;SDS011;6914;53.552;9.908;2023-12-07T09:05:45;77.93;;;42.87;;
13683;SDS011;6914;53.552;9.908;2023-12-07T09:08:13;72.67;;;39.67;;
13683;SDS011;6914;53.552;9.908;2023-12-07T09:10:40;73.60;;;39.27;;
13683;SDS011;6914;53.552;9.908;2023-12-07T09:13:07;84.63;;;40.10;;
13683;SDS011;6914;53.552;9.908;2023-12-07T09:15:34;75.67;;;39.73;;
13683;SDS011;6914;53.552;9.908;2023-12-07T09:18:02;96.93;;;42.87;;
13683;SDS011;6914;53.552;9.908;2023-12-07T09:20:30;75.37;;;41.77;;
13683;SDS011;6914;53.552;9.908;2023-12-07T09:22:58;77.67;;;42.63;;
13683;SDS011;6914;53.552;9.908;2023-12-07T09:25:25;73.37;;;40.70;;
13683;SDS011;6914;53.552;9.908;2023-12-07T09:27:52;119.43;;;43.27;;
13683;SDS011;6914;53.552;9.908;2023-12-07T09:30:20;79.33;;;42.27;;
13683;SDS011;6914;53.552;9.908;2023-12-07T09:32:47;83.77;;;42.60;;
13683;SDS011;6914;53.552;9.908;2023-12-07T09:35:14;80.23;;;41.00;;
13683;SDS011;6914;53.552;9.908;2023-12-07T09:37:45;72.93;;;40.77;;
13683;SDS011;6914;53.552;9.908;2023-12-07T09:40:16;146.73;;;42.50;;
13683;SDS011;6914;53.552;9.908;2023-12-07T09:42:46;284.83;;;39.63;;
13683;SDS011;6914;53.552;9.908;2023-12-07T09:45:13;244.23;;;40.20;;
13683;SDS011;6914;53.552;9.908;2023-12-07T09:47:42;87.17;;;39.67;;
13683;SDS011;6914;53.552;9.908;2023-12-07T09:50:09;219.23;;;41.73;;
13683;SDS011;6914;53.552;9.908;2023-12-07T09:52:39;179.27;;;38.20;;
13683;SDS011;6914;53.552;9.908;2023-12-07T09:55:08;142.00;;;36.97;;
13683;SDS011;6914;53.552;9.908;2023-12-07T09:57:35;320.60;;;38.57;;
13683;SDS011;6914;53.552;9.908;2023-12-07T10:00:03;182.57;;;38.40;;
13683;SDS011;6914;53.552;9.908;2023-12-07T10:02:32;134.47;;;34.90;;
13683;SDS011;6914;53.552;9.908;2023-12-07T10:05:03;286.43;;;36.00;;
13683;SDS011;6914;53.552;9.908;2023-12-07T10:07:34;159.73;;;35.57;;
13683;SDS011;6914;53.552;9.908;2023-12-07T10:10:02;315.73;;;37.80;;
13683;SDS011;6914;53.552;9.908;2023-12-07T10:12:31;213.13;;;37.30;;
13683;SDS011;6914;53.552;9.908;2023-12-07T10:14:59;132.90;;;38.17;;
13683;SDS011;6914;53.552;9.908;2023-12-07T10:17:42;110.77;;;36.67;;
13683;SDS011;6914;53.552;9.908;2023-12-07T10:20:10;214.17;;;36.93;;
13683;SDS011;6914;53.552;9.908;2023-12-07T10:22:38;115.20;;;36.17;;
13683;SDS011;6914;53.552;9.908;2023-12-07T10:25:05;179.83;;;37.47;;
13683;SDS011;6914;53.552;9.908;2023-12-07T10:27:34;103.17;;;36.27;;
13683;SDS011;6914;53.552;9.908;2023-12-07T10:30:03;104.90;;;38.57;;
13683;SDS011;6914;53.552;9.908;2023-12-07T10:32:31;198.07;;;39.40;;
13683;SDS011;6914;53.552;9.908;2023-12-07T10:34:58;193.00;;;35.70;;
13683;SDS011;6914;53.552;9.908;2023-12-07T10:37:26;122.30;;;38.10;;
13683;SDS011;6914;53.552;9.908;2023-12-07T10:39:53;102.47;;;39.10;;
13683;SDS011;6914;53.552;9.908;2023-12-07T10:42:21;147.07;;;39.10;;
13683;SDS011;6914;53.552;9.908;2023-12-07T10:44:52;142.37;;;36.57;;
13683;SDS011;6914;53.552;9.908;2023-12-07T10:47:21;118.47;;;33.67;;
13683;SDS011;6914;53.552;9.908;2023-12-07T10:49:49;71.97;;;33.43;;
13683;SDS011;6914;53.552;9.908;2023-12-07T10:52:20;54.37;;;31.93;;
13683;SDS011;6914;53.552;9.908;2023-12-07T10:54:50;57.30;;;33.07;;
13683;SDS011;6914;53.552;9.908;2023-12-07T10:57:21;55.27;;;31.00;;
13683;SDS011;6914;53.552;9.908;2023-12-07T10:59:48;50.33;;;32.10;;
13683;SDS011;6914;53.552;9.908;2023-12-07T11:02:18;60.03;;;33.20;;
13683;SDS011;6914;53.552;9.908;2023-12-07T11:04:47;57.10;;;33.10;;
13683;SDS011;6914;53.552;9.908;2023-12-07T11:07:16;60.40;;;33.67;;
13683;SDS011;6914;53.552;9.908;2023-12-07T11:09:45;59.40;;;33.10;;
13683;SDS011;6914;53.552;9.908;2023-12-07T11:12:17;59.70;;;34.17;;
13683;SDS011;6914;53.552;9.908;2023-12-07T11:14:45;56.67;;;34.40;;
13683;SDS011;6914;53.552;9.908;2023-12-07T11:17:13;62.30;;;35.40;;
13683;SDS011;6914;53.552;9.908;2023-12-07T11:19:44;59.20;;;34.37;;
13683;SDS011;6914;53.552;9.908;2023-12-07T11:22:13;62.03;;;32.60;;
13683;SDS011;6914;53.552;9.908;2023-12-07T11:24:51;64.07;;;33.40;;
13683;SDS011;6914;53.552;9.908;2023-12-07T11:27:19;63.07;;;34.43;;
13683;SDS011;6914;53.552;9.908;2023-12-07T11:29:46;59.10;;;34.47;;
13683;SDS011;6914;53.552;9.908;2023-12-07T11:32:13;66.53;;;34.60;;
13683;SDS011;6914;53.552;9.908;2023-12-07T11:34:41;57.53;;;32.87;;
13683;SDS011;6914;53.552;9.908;2023-12-07T11:37:11;55.87;;;32.47;;
13683;SDS011;6914;53.552;9.908;2023-12-07T11:39:39;62.43;;;34.00;;
13683;SDS011;6914;53.552;9.908;2023-12-07T11:42:08;53.50;;;32.23;;
13683;SDS011;6914;53.552;9.908;2023-12-07T11:44:36;51.10;;;30.83;;
13683;SDS011;6914;53.552;9.908;2023-12-07T11:47:04;56.20;;;33.10;;
13683;SDS011;6914;53.552;9.908;2023-12-07T11:49:31;53.83;;;31.47;;
13683;SDS011;6914;53.552;9.908;2023-12-07T11:51:58;53.03;;;33.03;;
13683;SDS011;6914;53.552;9.908;2023-12-07T11:54:27;56.80;;;31.77;;
13683;SDS011;6914;53.552;9.908;2023-12-07T11:56:54;67.67;;;32.33;;
13683;SDS011;6914;53.552;9.908;2023-12-07T11:59:21;60.90;;;33.70;;
13683;SDS011;6914;53.552;9.908;2023-12-07T12:01:50;51.77;;;31.37;;
13683;SDS011;6914;53.552;9.908;2023-12-07T12:04:18;62.97;;;34.33;;
13683;SDS011;6914;53.552;9.908;2023-12-07T12:06:45;63.80;;;34.83;;
13683;SDS011;6914;53.552;9.908;2023-12-07T12:09:12;57.23;;;31.43;;
13683;SDS011;6914;53.552;9.908;2023-12-07T12:11:45;54.57;;;33.43;;
13683;SDS011;6914;53.552;9.908;2023-12-07T12:14:13;51.87;;;30.63;;
13683;SDS011;6914;53.552;9.908;2023-12-07T12:16:40;47.10;;;29.87;;
13683;SDS011;6914;53.552;9.908;2023-12-07T12:19:07;55.83;;;32.90;;
13683;SDS011;6914;53.552;9.908;2023-12-07T12:21:34;54.50;;;31.20;;
13683;SDS011;6914;53.552;9.908;2023-12-07T12:24:04;50.57;;;32.37;;
13683;SDS011;6914;53.552;9.908;2023-12-07T12:26:31;55.90;;;32.87;;
13683;SDS011;6914;53.552;9.908;2023-12-07T12:29:01;47.57;;;29.17;;
13683;SDS011;6914;53.552;9.908;2023-12-07T12:31:28;59.17;;;31.60;;
13683;SDS011;6914;53.552;9.908;2023-12-07T12:33:56;48.07;;;30.40;;
13683;SDS011;6914;53.552;9.908;2023-12-07T12:36:22;55.67;;;33.23;;
13683;SDS011;6914;53.552;9.908;2023-12-07T12:38:53;51.93;;;31.93;;
13683;SDS011;6914;53.552;9.908;2023-12-07T12:41:22;60.40;;;34.13;;
13683;SDS011;6914;53.552;9.908;2023-12-07T12:43:53;53.77;;;32.97;;
13683;SDS011;6914;53.552;9.908;2023-12-07T12:46:22;58.13;;;33.57;;
13683;SDS011;6914;53.552;9.908;2023-12-07T12:48:52;63.47;;;35.50;;
13683;SDS011;6914;53.552;9.908;2023-12-07T12:51:20;78.33;;;36.10;;
13683;SDS011;6914;53.552;9.908;2023-12-07T12:53:52;71.27;;;39.77;;
13683;SDS011;6914;53.552;9.908;2023-12-07T12:56:20;139.67;;;66.40;;
13683;SDS011;6914;53.552;9.908;2023-12-07T12:58:49;72.13;;;41.40;;
13683;SDS011;6914;53.552;9.908;2023-12-07T13:01:17;73.73;;;41.33;;
13683;SDS011;6914;53.552;9.908;2023-12-07T13:03:47;74.40;;;41.50;;
13683;SDS011;6914;53.552;9.908;2023-12-07T13:06:15;63.67;;;36.90;;
13683;SDS011;6914;53.552;9.908;2023-12-07T13:08:45;61.60;;;36.77;;
13683;SDS011;6914;53.552;9.908;2023-12-07T13:11:16;61.47;;;37.07;;
13683;SDS011;6914;53.552;9.908;2023-12-07T13:13:45;68.10;;;38.53;;
13683;SDS011;6914;53.552;9.908;2023-12-07T13:16:13;68.20;;;38.50;;
13683;SDS011;6914;53.552;9.908;2023-12-07T13:18:40;62.67;;;37.70;;
13683;SDS011;6914;53.552;9.908;2023-12-07T13:21:09;70.37;;;38.70;;
13683;SDS011;6914;53.552;9.908;2023-12-07T13:23:36;81.00;;;37.60;;
13683;SDS011;6914;53.552;9.908;2023-12-07T13:26:04;78.97;;;40.40;;
13683;SDS011;6914;53.552;9.908;2023-12-07T13:28:32;78.30;;;39.77;;
13683;SDS011;6914;53.552;9.908;2023-12-07T13:30:59;82.33;;;43.50;;
13683;SDS011;6914;53.552;9.908;2023-12-07T13:33:27;62.80;;;38.50;;
13683;SDS011;6914;53.552;9.908;2023-12-07T13:35:54;74.13;;;39.40;;
13683;SDS011;6914;53.552;9.908;2023-12-07T13:38:23;86.37;;;41.83;;
13683;SDS011;6914;53.552;9.908;2023-12-07T13:40:53;80.30;;;42.63;;
13683;SDS011;6914;53.552;9.908;2023-12-07T13:43:21;82.67;;;44.27;;
13683;SDS011;6914;53.552;9.908;2023-12-07T13:45:49;85.03;;;42.37;;
13683;SDS011;6914;53.552;9.908;2023-12-07T13:48:17;74.83;;;40.63;;
13683;SDS011;6914;53.552;9.908;2023-12-07T13:50:44;79.87;;;42.50;;
13683;SDS011;6914;53.552;9.908;2023-12-07T13:53:11;79.37;;;40.60;;
13683;SDS011;6914;53.552;9.908;2023-12-07T13:55:39;81.50;;;42.23;;
13683;SDS011;6914;53.552;9.908;2023-12-07T13:58:06;79.43;;;39.47;;
13683;SDS011;6914;53.552;9.908;2023-12-07T14:00:34;80.07;;;38.87;;
13683;SDS011;6914;53.552;9.908;2023-12-07T14:03:03;75.90;;;39.37;;
13683;SDS011;6914;53.552;9.908;2023-12-07T14:05:29;69.57;;;37.77;;
13683;SDS011;6914;53.552;9.908;2023-12-07T14:07:56;70.13;;;36.87;;
13683;SDS011;6914;53.552;9.908;2023-12-07T14:10:24;72.77;;;38.90;;
13683;SDS011;6914;53.552;9.908;2023-12-07T14:12:53;67.33;;;37.87;;
13683;SDS011;6914;53.552;9.908;2023-12-07T14:15:20;69.90;;;37.87;;
13683;SDS011;6914;53.552;9.908;2023-12-07T14:17:47;72.20;;;37.60;;
13683;SDS011;6914;53.552;9.908;2023-12-07T14:20:15;70.13;;;37.43;;
13683;SDS011;6914;53.552;9.908;2023-12-07T14:22:43;77.47;;;38.77;;
13683;SDS011;6914;53.552;9.908;2023-12-07T14:25:11;70.83;;;38.03;;
13683;SDS011;6914;53.552;9.908;2023-12-07T14:27:38;72.37;;;36.60;;
13683;SDS011;6914;53.552;9.908;2023-12-07T14:30:07;66.07;;;37.33;;
13683;SDS011;6914;53.552;9.908;2023-12-07T14:32:35;75.70;;;39.37;;
13683;SDS011;6914;53.552;9.908;2023-12-07T14:35:02;75.10;;;39.10;;